sensor_id;sensor_type;location;lat;lon;timestamp;pressure;altitude;pressure_sealevel;temperature;humidity
27958;BME280;15295;42.658;23.374;2023-10-09T00:00:15;95066.22;;;23.62;38.36
27958;BME280;15295;42.658;23.374;2023-10-09T00:03:00;95081.56;;;23.66;38.32
27958;BME280;15295;42.658;23.374;2023-10-09T00:05:28;95072.88;;;23.64;38.51
27958;BME280;15295;42.658;23.374;2023-10-09T00:10:48;95033.44;;;23.30;38.25
27958;BME280;15295;42.658;23.374;2023-10-09T00:13:28;95069.03;;;23.53;38.47
27958;BME280;15295;42.658;23.374;2023-10-09T00:15:57;95084.06;;;23.55;38.45
27958;BME280;15295;42.658;23.374;2023-10-09T00:21:02;95061.31;;;23.30;38.43
27958;BME280;15295;42.658;23.374;2023-10-09T00:23:37;95087.06;;;23.43;38.53
27958;BME280;15295;42.658;23.374;2023-10-09T00:26:03;95082.69;;;23.42;38.41
27958;BME280;15295;42.658;23.374;2023-10-09T00:28:41;95074.97;;;23.28;38.80
27958;BME280;15295;42.658;23.374;2023-10-09T00:31:10;95083.16;;;23.31;38.76
27958;BME280;15295;42.658;23.374;2023-10-09T00:38:51;95052.38;;;23.08;38.70
27958;BME280;15295;42.658;23.374;2023-10-09T00:41:17;95074.34;;;23.24;38.38
27958;BME280;15295;42.658;23.374;2023-10-09T00:43:47;95079.47;;;23.16;38.73
27958;BME280;15295;42.658;23.374;2023-10-09T00:51:26;95033.22;;;22.64;38.67
27958;BME280;15295;42.658;23.374;2023-10-09T00:53:56;95066.78;;;22.79;39.21
27958;BME280;15295;42.658;23.374;2023-10-09T01:01:43;95056.38;;;22.52;39.43
27958;BME280;15295;42.658;23.374;2023-10-09T01:04:23;95106.25;;;22.68;39.30
27958;BME280;15295;42.658;23.374;2023-10-09T01:20:13;95116.25;;;22.48;39.17
27958;BME280;15295;42.658;23.374;2023-10-09T01:25:17;95131.38;;;22.38;39.54
27958;BME280;15295;42.658;23.374;2023-10-09T01:33:13;95133.91;;;22.05;39.09
27958;BME280;15295;42.658;23.374;2023-10-09T01:43:32;95143.56;;;21.82;39.43
27958;BME280;15295;42.658;23.374;2023-10-09T01:45:59;95158.25;;;21.83;39.29
27958;BME280;15295;42.658;23.374;2023-10-09T01:56:12;95142.78;;;21.38;39.83
27958;BME280;15295;42.658;23.374;2023-10-09T02:06:21;95175.56;;;21.22;40.18
27958;BME280;15295;42.658;23.374;2023-10-09T02:09:02;95193.91;;;21.19;39.88
27958;BME280;15295;42.658;23.374;2023-10-09T02:14:07;95188.19;;;21.01;40.29
27958;BME280;15295;42.658;23.374;2023-10-09T02:16:48;95209.94;;;21.15;39.96
27958;BME280;15295;42.658;23.374;2023-10-09T02:20:08;95200.97;;;21.11;40.23
27958;BME280;15295;42.658;23.374;2023-10-09T02:22:43;95194.56;;;20.89;40.57
27958;BME280;15295;42.658;23.374;2023-10-09T02:25:08;95203.78;;;20.86;40.49
27958;BME280;15295;42.658;23.374;2023-10-09T02:33:00;95158.22;;;20.37;41.03
27958;BME280;15295;42.658;23.374;2023-10-09T02:35:34;95201.06;;;20.61;40.74
27958;BME280;15295;42.658;23.374;2023-10-09T02:48:28;95199.28;;;20.04;41.53
27958;BME280;15295;42.658;23.374;2023-10-09T02:51:13;95243.41;;;20.27;41.38
27958;BME280;15295;42.658;23.374;2023-10-09T02:54:04;95224.81;;;20.12;41.63
27958;BME280;15295;42.658;23.374;2023-10-09T02:56:53;95249.03;;;20.24;41.51
27958;BME280;15295;42.658;23.374;2023-10-09T03:02:08;95243.00;;;20.13;41.61
27958;BME280;15295;42.658;23.374;2023-10-09T03:04:36;95235.91;;;20.12;41.66
27958;BME280;15295;42.658;23.374;2023-10-09T03:10:01;95241.81;;;20.14;41.73
27958;BME280;15295;42.658;23.374;2023-10-09T03:12:26;95242.34;;;20.09;41.64
27958;BME280;15295;42.658;23.374;2023-10-09T03:27:48;95265.66;;;19.70;41.85
27958;BME280;15295;42.658;23.374;2023-10-09T03:30:19;95283.69;;;19.78;41.53
27958;BME280;15295;42.658;23.374;2023-10-09T03:32:51;95280.28;;;19.58;41.47
27958;BME280;15295;42.658;23.374;2023-10-09T03:40:34;95241.31;;;19.20;41.87
27958;BME280;15295;42.658;23.374;2023-10-09T03:43:04;95280.09;;;19.36;42.00
27958;BME280;15295;42.658;23.374;2023-10-09T03:45:34;95289.09;;;19.24;42.12
27958;BME280;15295;42.658;23.374;2023-10-09T03:48:00;95284.91;;;19.32;42.14
27958;BME280;15295;42.658;23.374;2023-10-09T03:50:41;95284.41;;;19.37;42.31
27958;BME280;15295;42.658;23.374;2023-10-09T03:59:40;95268.44;;;18.96;41.80
27958;BME280;15295;42.658;23.374;2023-10-09T04:02:21;95295.19;;;19.03;41.57
27958;BME280;15295;42.658;23.374;2023-10-09T04:04:48;95285.13;;;18.93;41.69
27958;BME280;15295;42.658;23.374;2023-10-09T04:07:16;95304.00;;;18.98;42.04
27958;BME280;15295;42.658;23.374;2023-10-09T04:12:17;95280.72;;;18.95;42.80
27958;BME280;15295;42.658;23.374;2023-10-09T04:14:46;95268.16;;;18.91;41.43
27958;BME280;15295;42.658;23.374;2023-10-09T04:17:23;95254.19;;;18.82;41.93
27958;BME280;15295;42.658;23.374;2023-10-09T04:22:16;95237.22;;;18.48;41.55
27958;BME280;15295;42.658;23.374;2023-10-09T04:24:52;95292.84;;;18.69;41.45
27958;BME280;15295;42.658;23.374;2023-10-09T04:29:53;95293.97;;;18.56;41.97
27958;BME280;15295;42.658;23.374;2023-10-09T04:34:55;95296.97;;;18.61;40.89
27958;BME280;15295;42.658;23.374;2023-10-09T04:37:43;95294.31;;;18.58;40.83
27958;BME280;15295;42.658;23.374;2023-10-09T04:42:35;95269.91;;;18.53;40.96
27958;BME280;15295;42.658;23.374;2023-10-09T04:45:07;95283.06;;;18.48;40.07
27958;BME280;15295;42.658;23.374;2023-10-09T04:47:34;95297.44;;;18.60;39.81
27958;BME280;15295;42.658;23.374;2023-10-09T04:50:07;95310.81;;;18.61;40.17
27958;BME280;15295;42.658;23.374;2023-10-09T04:52:58;95306.75;;;18.50;39.69
27958;BME280;15295;42.658;23.374;2023-10-09T04:55:44;95309.44;;;18.53;39.67
27958;BME280;15295;42.658;23.374;2023-10-09T04:58:24;95310.56;;;18.56;39.81
27958;BME280;15295;42.658;23.374;2023-10-09T05:00:53;95314.03;;;18.60;39.46
27958;BME280;15295;42.658;23.374;2023-10-09T05:03:59;95323.81;;;18.64;39.50
27958;BME280;15295;42.658;23.374;2023-10-09T05:06:29;95304.84;;;18.63;39.62
27958;BME280;15295;42.658;23.374;2023-10-09T05:09:13;95327.72;;;18.67;38.94
27958;BME280;15295;42.658;23.374;2023-10-09T05:11:40;95315.75;;;18.54;38.70
27958;BME280;15295;42.658;23.374;2023-10-09T05:24:38;95347.34;;;18.72;38.18
27958;BME280;15295;42.658;23.374;2023-10-09T05:27:12;95323.53;;;18.59;38.10
27958;BME280;15295;42.658;23.374;2023-10-09T05:29:43;95345.38;;;18.73;38.03
27958;BME280;15295;42.658;23.374;2023-10-09T05:37:28;95363.97;;;18.72;37.25
27958;BME280;15295;42.658;23.374;2023-10-09T05:40:09;95346.13;;;18.57;37.41
27958;BME280;15295;42.658;23.374;2023-10-09T05:53:22;95372.41;;;18.49;37.14
27958;BME280;15295;42.658;23.374;2023-10-09T05:56:00;95393.44;;;18.63;36.70
27958;BME280;15295;42.658;23.374;2023-10-09T06:06:21;95398.22;;;18.62;35.94
27958;BME280;15295;42.658;23.374;2023-10-09T06:11:33;95385.50;;;18.65;36.22
27958;BME280;15295;42.658;23.374;2023-10-09T06:14:00;95412.03;;;18.82;35.78
27958;BME280;15295;42.658;23.374;2023-10-09T06:16:36;95430.34;;;18.76;35.92
27958;BME280;15295;42.658;23.374;2023-10-09T06:19:12;95415.56;;;18.82;35.59
27958;BME280;15295;42.658;23.374;2023-10-09T06:39:19;95407.28;;;20.08;31.92
27958;BME280;15295;42.658;23.374;2023-10-09T06:42:03;95383.03;;;19.95;31.32
27958;BME280;15295;42.658;23.374;2023-10-09T06:44:55;95428.09;;;20.44;31.58
27958;BME280;15295;42.658;23.374;2023-10-09T06:47:20;95426.56;;;20.56;31.77
27958;BME280;15295;42.658;23.374;2023-10-09T06:49:49;95412.69;;;20.81;31.54
27958;BME280;15295;42.658;23.374;2023-10-09T06:52:34;95429.53;;;21.03;30.25
27958;BME280;15295;42.658;23.374;2023-10-09T06:55:18;95439.56;;;21.25;30.09
27958;BME280;15295;42.658;23.374;2023-10-09T06:57:57;95432.31;;;21.40;30.04
27958;BME280;15295;42.658;23.374;2023-10-09T07:00:27;95393.47;;;21.37;29.80
27958;BME280;15295;42.658;23.374;2023-10-09T07:03:17;95428.34;;;21.76;28.50
27958;BME280;15295;42.658;23.374;2023-10-09T07:05:45;95445.81;;;21.89;28.22
27958;BME280;15295;42.658;23.374;2023-10-09T07:08:29;95435.81;;;21.91;27.89
27958;BME280;15295;42.658;23.374;2023-10-09T07:11:00;95439.53;;;22.10;28.27
27958;BME280;15295;42.658;23.374;2023-10-09T07:17:07;95443.16;;;22.41;27.36
27958;BME280;15295;42.658;23.374;2023-10-09T07:22:17;95435.19;;;22.95;28.62
27958;BME280;15295;42.658;23.374;2023-10-09T07:24:47;95400.78;;;22.89;26.85
27958;BME280;15295;42.658;23.374;2023-10-09T07:32:32;95460.03;;;23.33;26.28
27958;BME280;15295;42.658;23.374;2023-10-09T07:34:59;95436.34;;;23.38;26.32
27958;BME280;15295;42.658;23.374;2023-10-09T07:42:48;95416.34;;;23.97;24.71
27958;BME280;15295;42.658;23.374;2023-10-09T07:45:17;95448.00;;;24.12;24.27
27958;BME280;15295;42.658;23.374;2023-10-09T07:47:47;95436.53;;;24.28;24.64
27958;BME280;15295;42.658;23.374;2023-10-09T07:50:24;95447.09;;;24.51;24.67
27958;BME280;15295;42.658;23.374;2023-10-09T07:52:56;95448.63;;;24.62;23.91
27958;BME280;15295;42.658;23.374;2023-10-09T07:55:54;95443.97;;;24.68;23.92
27958;BME280;15295;42.658;23.374;2023-10-09T07:58:24;95443.03;;;24.89;23.31
27958;BME280;15295;42.658;23.374;2023-10-09T08:00:57;95436.97;;;24.81;23.20
27958;BME280;15295;42.658;23.374;2023-10-09T08:03:36;95445.38;;;24.81;22.88
27958;BME280;15295;42.658;23.374;2023-10-09T08:06:02;95460.25;;;24.96;22.73
27958;BME280;15295;42.658;23.374;2023-10-09T08:11:21;95454.34;;;25.03;22.98
27958;BME280;15295;42.658;23.374;2023-10-09T08:14:08;95448.03;;;25.36;22.71
27958;BME280;15295;42.658;23.374;2023-10-09T08:19:55;95440.75;;;25.94;22.49
27958;BME280;15295;42.658;23.374;2023-10-09T08:24:54;95429.66;;;26.00;21.79
27958;BME280;15295;42.658;23.374;2023-10-09T08:27:45;95438.00;;;26.33;21.17
27958;BME280;15295;42.658;23.374;2023-10-09T08:30:12;95435.03;;;26.36;21.27
27958;BME280;15295;42.658;23.374;2023-10-09T08:35:11;95430.03;;;25.93;21.20
27958;BME280;15295;42.658;23.374;2023-10-09T08:48:59;95393.78;;;25.66;21.36
27958;BME280;15295;42.658;23.374;2023-10-09T08:51:26;95388.84;;;25.84;21.16
27958;BME280;15295;42.658;23.374;2023-10-09T08:59:02;95383.25;;;26.61;20.77
27958;BME280;15295;42.658;23.374;2023-10-09T09:01:30;95392.75;;;26.93;20.00
27958;BME280;15295;42.658;23.374;2023-10-09T09:06:44;95386.34;;;27.36;19.91
27958;BME280;15295;42.658;23.374;2023-10-09T09:09:11;95377.94;;;27.36;19.66
27958;BME280;15295;42.658;23.374;2023-10-09T09:11:41;95402.69;;;27.37;19.00
27958;BME280;15295;42.658;23.374;2023-10-09T09:14:13;95396.03;;;27.06;19.48
27958;BME280;15295;42.658;23.374;2023-10-09T09:16:57;95406.41;;;26.85;19.56
27958;BME280;15295;42.658;23.374;2023-10-09T09:19:31;95406.50;;;27.05;19.08
27958;BME280;15295;42.658;23.374;2023-10-09T09:21:57;95416.66;;;27.17;18.52
27958;BME280;15295;42.658;23.374;2023-10-09T09:24:39;95398.94;;;27.40;19.35
27958;BME280;15295;42.658;23.374;2023-10-09T09:27:10;95382.94;;;27.46;17.46
27958;BME280;15295;42.658;23.374;2023-10-09T09:29:56;95392.03;;;27.56;18.08
27958;BME280;15295;42.658;23.374;2023-10-09T09:32:29;95396.69;;;27.79;17.80
27958;BME280;15295;42.658;23.374;2023-10-09T09:37:35;95392.97;;;27.88;18.42
27958;BME280;15295;42.658;23.374;2023-10-09T09:40:07;95374.16;;;27.94;18.00
27958;BME280;15295;42.658;23.374;2023-10-09T09:43:00;95371.31;;;27.74;17.66
27958;BME280;15295;42.658;23.374;2023-10-09T09:50:45;95380.50;;;28.09;17.39
27958;BME280;15295;42.658;23.374;2023-10-09T09:53:19;95383.59;;;28.11;17.14
27958;BME280;15295;42.658;23.374;2023-10-09T09:55:56;95379.66;;;28.23;16.78
27958;BME280;15295;42.658;23.374;2023-10-09T09:58:26;95381.72;;;28.68;16.83
27958;BME280;15295;42.658;23.374;2023-10-09T10:01:03;95361.22;;;28.93;16.65
27958;BME280;15295;42.658;23.374;2023-10-09T10:03:53;95365.69;;;29.06;17.35
27958;BME280;15295;42.658;23.374;2023-10-09T10:06:52;95353.09;;;29.27;16.17
27958;BME280;15295;42.658;23.374;2023-10-09T10:19:01;95331.09;;;29.31;16.62
27958;BME280;15295;42.658;23.374;2023-10-09T10:21:53;95329.00;;;29.62;16.03
27958;BME280;15295;42.658;23.374;2023-10-09T10:27:15;95312.34;;;29.64;16.35
27958;BME280;15295;42.658;23.374;2023-10-09T10:30:27;95311.13;;;29.71;16.33
27958;BME280;15295;42.658;23.374;2023-10-09T10:35:38;95269.25;;;29.11;16.05
27958;BME280;15295;42.658;23.374;2023-10-09T10:41:19;95274.25;;;29.27;16.71
27958;BME280;15295;42.658;23.374;2023-10-09T10:43:48;95251.31;;;29.45;15.81
27958;BME280;15295;42.658;23.374;2023-10-09T10:46:23;95262.28;;;29.85;16.26
27958;BME280;15295;42.658;23.374;2023-10-09T10:48:55;95270.31;;;30.14;15.87
27958;BME280;15295;42.658;23.374;2023-10-09T10:51:38;95272.13;;;30.28;15.88
27958;BME280;15295;42.658;23.374;2023-10-09T10:54:05;95258.81;;;30.23;15.75
27958;BME280;15295;42.658;23.374;2023-10-09T10:57:13;95253.88;;;30.02;15.92
27958;BME280;15295;42.658;23.374;2023-10-09T10:59:45;95262.66;;;30.20;15.60
27958;BME280;15295;42.658;23.374;2023-10-09T11:02:11;95250.09;;;30.27;15.52
27958;BME280;15295;42.658;23.374;2023-10-09T11:04:39;95241.63;;;30.27;15.21
27958;BME280;15295;42.658;23.374;2023-10-09T11:07:11;95245.53;;;30.40;15.18
27958;BME280;15295;42.658;23.374;2023-10-09T11:12:54;95250.16;;;30.66;15.10
27958;BME280;15295;42.658;23.374;2023-10-09T11:15:34;95242.47;;;30.72;15.50
27958;BME280;15295;42.658;23.374;2023-10-09T11:18:15;95234.78;;;30.83;15.42
27958;BME280;15295;42.658;23.374;2023-10-09T11:20:55;95225.50;;;31.16;15.26
27958;BME280;15295;42.658;23.374;2023-10-09T11:23:31;95206.53;;;31.11;15.73
27958;BME280;15295;42.658;23.374;2023-10-09T11:26:17;95204.47;;;31.17;15.07
27958;BME280;15295;42.658;23.374;2023-10-09T11:29:18;95198.78;;;31.22;15.09
27958;BME280;15295;42.658;23.374;2023-10-09T11:34:46;95191.66;;;30.83;15.32
27958;BME280;15295;42.658;23.374;2023-10-09T11:37:23;95205.25;;;31.12;15.45
27958;BME280;15295;42.658;23.374;2023-10-09T11:40:26;95187.72;;;31.36;15.01
27958;BME280;15295;42.658;23.374;2023-10-09T11:43:26;95193.13;;;31.39;14.99
27958;BME280;15295;42.658;23.374;2023-10-09T11:46:10;95192.44;;;31.79;14.93
27958;BME280;15295;42.658;23.374;2023-10-09T11:54:09;95150.16;;;31.63;14.64
27958;BME280;15295;42.658;23.374;2023-10-09T11:56:34;95178.03;;;31.88;14.60
27958;BME280;15295;42.658;23.374;2023-10-09T11:59:10;95168.72;;;31.99;14.53
27958;BME280;15295;42.658;23.374;2023-10-09T12:01:38;95164.00;;;32.13;14.09
27958;BME280;15295;42.658;23.374;2023-10-09T12:04:07;95160.78;;;31.86;14.54
27958;BME280;15295;42.658;23.374;2023-10-09T12:06:35;95154.88;;;31.84;14.57
27958;BME280;15295;42.658;23.374;2023-10-09T12:21:52;95119.84;;;32.04;14.21
27958;BME280;15295;42.658;23.374;2023-10-09T12:26:56;95120.16;;;31.89;14.55
27958;BME280;15295;42.658;23.374;2023-10-09T12:29:23;95111.94;;;31.97;14.75
27958;BME280;15295;42.658;23.374;2023-10-09T12:31:50;95109.31;;;32.05;14.42
27958;BME280;15295;42.658;23.374;2023-10-09T12:34:24;95113.69;;;32.00;14.73
27958;BME280;15295;42.658;23.374;2023-10-09T12:36:56;95118.75;;;32.13;14.45
27958;BME280;15295;42.658;23.374;2023-10-09T12:42:01;95108.03;;;32.35;14.16
27958;BME280;15295;42.658;23.374;2023-10-09T12:44:34;95079.38;;;32.20;14.07
27958;BME280;15295;42.658;23.374;2023-10-09T12:49:41;95081.31;;;32.01;14.05
27958;BME280;15295;42.658;23.374;2023-10-09T12:52:14;95085.03;;;32.20;14.16
27958;BME280;15295;42.658;23.374;2023-10-09T12:54:43;95090.38;;;32.24;13.62
27958;BME280;15295;42.658;23.374;2023-10-09T12:57:14;95085.25;;;32.22;13.91
27958;BME280;15295;42.658;23.374;2023-10-09T13:00:03;95087.94;;;32.39;14.05
27958;BME280;15295;42.658;23.374;2023-10-09T13:02:36;95071.50;;;32.37;13.90
27958;BME280;15295;42.658;23.374;2023-10-09T13:05:02;95067.66;;;32.35;13.35
27958;BME280;15295;42.658;23.374;2023-10-09T13:07:33;95059.97;;;32.30;13.51
27958;BME280;15295;42.658;23.374;2023-10-09T13:10:11;95063.22;;;32.15;12.88
27958;BME280;15295;42.658;23.374;2023-10-09T13:12:39;95046.16;;;31.97;13.22
27958;BME280;15295;42.658;23.374;2023-10-09T13:15:08;95041.78;;;31.95;13.38
27958;BME280;15295;42.658;23.374;2023-10-09T13:17:38;95061.78;;;32.03;13.44
27958;BME280;15295;42.658;23.374;2023-10-09T13:20:06;95038.16;;;31.95;13.86
27958;BME280;15295;42.658;23.374;2023-10-09T13:22:44;95040.50;;;31.91;13.60
27958;BME280;15295;42.658;23.374;2023-10-09T13:25:36;95047.16;;;31.93;13.53
27958;BME280;15295;42.658;23.374;2023-10-09T13:28:05;95049.03;;;31.85;13.64
27958;BME280;15295;42.658;23.374;2023-10-09T13:30:31;95051.19;;;31.68;13.48
27958;BME280;15295;42.658;23.374;2023-10-09T13:33:04;95034.38;;;31.52;13.35
27958;BME280;15295;42.658;23.374;2023-10-09T13:35:36;95035.94;;;31.47;13.52
27958;BME280;15295;42.658;23.374;2023-10-09T13:38:18;95034.94;;;31.39;13.75
27958;BME280;15295;42.658;23.374;2023-10-09T13:40:57;95019.31;;;31.27;14.16
27958;BME280;15295;42.658;23.374;2023-10-09T13:43:26;95032.91;;;31.34;13.90
27958;BME280;15295;42.658;23.374;2023-10-09T13:45:54;95027.56;;;31.25;13.94
27958;BME280;15295;42.658;23.374;2023-10-09T13:48:22;95019.19;;;31.08;13.58
27958;BME280;15295;42.658;23.374;2023-10-09T13:50:51;95009.50;;;30.93;13.76
27958;BME280;15295;42.658;23.374;2023-10-09T13:53:22;95013.88;;;30.83;13.91
27958;BME280;15295;42.658;23.374;2023-10-09T14:01:02;95005.00;;;30.62;13.38
27958;BME280;15295;42.658;23.374;2023-10-09T14:03:33;95003.22;;;30.48;13.24
27958;BME280;15295;42.658;23.374;2023-10-09T14:05:59;95003.78;;;30.41;13.44
27958;BME280;15295;42.658;23.374;2023-10-09T14:08:36;95004.53;;;30.30;13.52
27958;BME280;15295;42.658;23.374;2023-10-09T14:11:12;94998.66;;;30.12;13.53
27958;BME280;15295;42.658;23.374;2023-10-09T14:13:42;95006.38;;;30.00;13.66
27958;BME280;15295;42.658;23.374;2023-10-09T14:16:08;94993.31;;;29.75;13.82
27958;BME280;15295;42.658;23.374;2023-10-09T14:21:27;95012.97;;;29.47;14.28
27958;BME280;15295;42.658;23.374;2023-10-09T14:24:03;94980.72;;;29.21;14.40
27958;BME280;15295;42.658;23.374;2023-10-09T14:26:41;95005.97;;;29.15;14.75
27958;BME280;15295;42.658;23.374;2023-10-09T14:29:07;95003.16;;;29.15;14.67
27958;BME280;15295;42.658;23.374;2023-10-09T14:34:08;94989.81;;;28.93;14.97
27958;BME280;15295;42.658;23.374;2023-10-09T14:36:34;94992.34;;;28.91;15.46
27958;BME280;15295;42.658;23.374;2023-10-09T14:39:01;94995.16;;;28.80;15.53
27958;BME280;15295;42.658;23.374;2023-10-09T14:41:36;94987.94;;;28.68;15.48
27958;BME280;15295;42.658;23.374;2023-10-09T14:44:01;94982.25;;;28.57;15.47
27958;BME280;15295;42.658;23.374;2023-10-09T14:46:27;94986.63;;;28.58;15.88
27958;BME280;15295;42.658;23.374;2023-10-09T14:48:53;94982.22;;;28.52;15.84
27958;BME280;15295;42.658;23.374;2023-10-09T14:51:25;94968.56;;;28.34;16.04
27958;BME280;15295;42.658;23.374;2023-10-09T14:53:56;94980.84;;;28.36;16.07
27958;BME280;15295;42.658;23.374;2023-10-09T14:56:28;94976.22;;;28.27;16.37
27958;BME280;15295;42.658;23.374;2023-10-09T14:58:58;94964.44;;;28.18;16.01
27958;BME280;15295;42.658;23.374;2023-10-09T15:01:38;94975.84;;;28.09;16.08
27958;BME280;15295;42.658;23.374;2023-10-09T15:04:04;94968.66;;;27.97;16.32
27958;BME280;15295;42.658;23.374;2023-10-09T15:06:30;94952.47;;;27.86;16.19
27958;BME280;15295;42.658;23.374;2023-10-09T15:09:14;94972.88;;;27.87;16.01
27958;BME280;15295;42.658;23.374;2023-10-09T15:12:03;94970.75;;;27.76;16.09
27958;BME280;15295;42.658;23.374;2023-10-09T15:14:33;94980.41;;;27.70;15.94
27958;BME280;15295;42.658;23.374;2023-10-09T15:16:59;94975.00;;;27.61;16.33
27958;BME280;15295;42.658;23.374;2023-10-09T15:22:00;94968.75;;;27.45;16.43
27958;BME280;15295;42.658;23.374;2023-10-09T15:24:27;94959.22;;;27.37;16.77
27958;BME280;15295;42.658;23.374;2023-10-09T15:26:53;94957.78;;;27.22;16.49
27958;BME280;15295;42.658;23.374;2023-10-09T15:29:23;94947.72;;;27.10;16.74
27958;BME280;15295;42.658;23.374;2023-10-09T15:31:57;94952.34;;;27.13;16.66
27958;BME280;15295;42.658;23.374;2023-10-09T15:37:10;94920.13;;;26.77;17.03
27958;BME280;15295;42.658;23.374;2023-10-09T15:39:38;94955.41;;;26.89;16.88
27958;BME280;15295;42.658;23.374;2023-10-09T15:42:04;94950.31;;;26.67;17.12
27958;BME280;15295;42.658;23.374;2023-10-09T15:44:34;94956.13;;;26.64;17.07
27958;BME280;15295;42.658;23.374;2023-10-09T15:47:03;94970.44;;;26.66;17.22
27958;BME280;15295;42.658;23.374;2023-10-09T15:49:29;94965.94;;;26.54;17.46
27958;BME280;15295;42.658;23.374;2023-10-09T15:52:12;94949.94;;;26.34;17.69
27958;BME280;15295;42.658;23.374;2023-10-09T15:54:49;94960.13;;;26.37;17.82
27958;BME280;15295;42.658;23.374;2023-10-09T15:57:14;94954.06;;;26.19;17.68
27958;BME280;15295;42.658;23.374;2023-10-09T15:59:42;94955.56;;;26.20;18.09
27958;BME280;15295;42.658;23.374;2023-10-09T16:02:07;94953.69;;;26.11;18.45
27958;BME280;15295;42.658;23.374;2023-10-09T16:04:33;94955.47;;;26.09;19.08
27958;BME280;15295;42.658;23.374;2023-10-09T16:07:00;94960.75;;;26.07;18.49
27958;BME280;15295;42.658;23.374;2023-10-09T16:09:26;94965.97;;;25.99;18.55
27958;BME280;15295;42.658;23.374;2023-10-09T16:11:52;94963.38;;;25.95;18.87
27958;BME280;15295;42.658;23.374;2023-10-09T16:14:19;94961.94;;;25.85;18.73
27958;BME280;15295;42.658;23.374;2023-10-09T16:16:54;94974.81;;;25.77;19.06
27958;BME280;15295;42.658;23.374;2023-10-09T16:19:20;94986.16;;;25.68;19.58
27958;BME280;15295;42.658;23.374;2023-10-09T16:21:48;94982.09;;;25.69;19.36
27958;BME280;15295;42.658;23.374;2023-10-09T16:24:14;94989.91;;;25.65;19.57
27958;BME280;15295;42.658;23.374;2023-10-09T16:26:40;94970.25;;;25.45;19.91
27958;BME280;15295;42.658;23.374;2023-10-09T16:29:10;95001.13;;;25.51;19.84
27958;BME280;15295;42.658;23.374;2023-10-09T16:31:37;94984.78;;;25.35;19.87
27958;BME280;15295;42.658;23.374;2023-10-09T16:34:04;94995.22;;;25.34;19.88
27958;BME280;15295;42.658;23.374;2023-10-09T16:36:36;94991.94;;;25.36;20.23
27958;BME280;15295;42.658;23.374;2023-10-09T16:39:15;94991.09;;;25.30;20.55
27958;BME280;15295;42.658;23.374;2023-10-09T16:41:49;94962.34;;;25.00;20.75
27958;BME280;15295;42.658;23.374;2023-10-09T16:44:16;94938.66;;;24.72;20.88
27958;BME280;15295;42.658;23.374;2023-10-09T16:46:54;94974.19;;;24.95;21.19
27958;BME280;15295;42.658;23.374;2023-10-09T16:49:44;94960.38;;;24.77;21.10
27958;BME280;15295;42.658;23.374;2023-10-09T16:52:36;94969.34;;;24.81;21.51
27958;BME280;15295;42.658;23.374;2023-10-09T16:55:07;94974.63;;;24.79;21.61
27958;BME280;15295;42.658;23.374;2023-10-09T17:00:15;94905.41;;;24.21;21.20
27958;BME280;15295;42.658;23.374;2023-10-09T17:03:04;94952.69;;;24.48;21.79
27958;BME280;15295;42.658;23.374;2023-10-09T17:05:45;94969.47;;;24.63;21.60
27958;BME280;15295;42.658;23.374;2023-10-09T18:20:00;94890.06;;;22.25;24.64
27958;BME280;15295;42.658;23.374;2023-10-09T18:22:26;94893.28;;;21.88;24.98
27958;BME280;15295;42.658;23.374;2023-10-09T18:24:54;94889.44;;;21.85;24.92
27958;BME280;15295;42.658;23.374;2023-10-09T18:32:32;94893.44;;;21.84;24.68
27958;BME280;15295;42.658;23.374;2023-10-09T18:35:03;94887.72;;;21.79;24.99
27958;BME280;15295;42.658;23.374;2023-10-09T18:43:00;94909.69;;;21.95;25.03
27958;BME280;15295;42.658;23.374;2023-10-09T19:11:21;94900.00;;;21.50;26.44
27958;BME280;15295;42.658;23.374;2023-10-09T19:14:22;94879.88;;;21.28;26.80
27958;BME280;15295;42.658;23.374;2023-10-09T19:17:17;94928.44;;;21.55;26.65
27958;BME280;15295;42.658;23.374;2023-10-09T19:20:22;94856.97;;;21.06;27.02
27958;BME280;15295;42.658;23.374;2023-10-09T19:41:06;94931.81;;;21.40;27.58
27958;BME280;15295;42.658;23.374;2023-10-09T19:43:36;94914.59;;;21.24;27.72
27958;BME280;15295;42.658;23.374;2023-10-09T19:48:41;94912.91;;;21.26;27.68
27958;BME280;15295;42.658;23.374;2023-10-09T19:51:11;94880.53;;;21.02;28.04
27958;BME280;15295;42.658;23.374;2023-10-09T20:00:14;94953.81;;;21.26;28.48
27958;BME280;15295;42.658;23.374;2023-10-09T20:11:25;94934.22;;;20.99;28.26
27958;BME280;15295;42.658;23.374;2023-10-09T20:14:18;94941.34;;;21.00;29.09
27958;BME280;15295;42.658;23.374;2023-10-09T20:24:57;94928.00;;;20.64;29.53
27958;BME280;15295;42.658;23.374;2023-10-09T20:27:27;94948.03;;;20.81;29.49
27958;BME280;15295;42.658;23.374;2023-10-09T20:33:04;94911.00;;;20.53;29.62
27958;BME280;15295;42.658;23.374;2023-10-09T20:40:45;94933.69;;;20.60;29.63
27958;BME280;15295;42.658;23.374;2023-10-09T20:43:16;94937.03;;;20.55;29.85
27958;BME280;15295;42.658;23.374;2023-10-09T20:46:26;94950.84;;;20.68;30.02
27958;BME280;15295;42.658;23.374;2023-10-09T21:28:16;94918.25;;;19.82;31.06
27958;BME280;15295;42.658;23.374;2023-10-09T21:30:42;94929.41;;;20.04;31.26
27958;BME280;15295;42.658;23.374;2023-10-09T21:38:42;94942.03;;;20.05;31.22
27958;BME280;15295;42.658;23.374;2023-10-09T21:46:30;94922.28;;;20.02;31.34
27958;BME280;15295;42.658;23.374;2023-10-09T21:49:00;94922.03;;;20.10;31.05
27958;BME280;15295;42.658;23.374;2023-10-09T21:51:48;94942.22;;;20.23;31.39
27958;BME280;15295;42.658;23.374;2023-10-09T22:02:11;94934.81;;;20.41;31.64
27958;BME280;15295;42.658;23.374;2023-10-09T22:07:15;94938.69;;;20.44;31.90
27958;BME280;15295;42.658;23.374;2023-10-09T22:12:35;94900.34;;;20.17;31.78